Terminal Aerodrome Forecast
Issued by NWS

Home | Current Version | Previous Version | Graphics & Text | Print | Product List | Glossary On
Versions: 1 2 3 4 5 6 7 8 9 10 11 12 13 14 15 16
000
FTUS43 KMPX 261700
TAFRWF
TAF
KRWF 261720Z 2618/2718 22005KT P6SM SCT025 BKN200
     FM262100 26009KT P6SM SCT040 SCT100
     FM270000 30009KT P6SM SCT040 SCT100
     FM271300 31014G24KT P6SM BKN025 BKN040=

USA.gov is the U.S. government's official web portal to all federal, state and local government web resources and services.